createdAt,value
2023-05-09T00:00:53.754Z,10.38
2023-05-09T00:01:53.758Z,10.34
2023-05-09T00:02:53.711Z,10.33
2023-05-09T00:03:53.728Z,10.34
2023-05-09T00:04:53.725Z,10.34
2023-05-09T00:05:53.663Z,10.32
2023-05-09T00:06:53.684Z,10.30
2023-05-09T00:07:53.717Z,10.32
2023-05-09T00:08:53.666Z,10.33
2023-05-09T00:09:53.655Z,10.38
2023-05-09T00:10:53.739Z,10.30
2023-05-09T00:11:53.594Z,10.33
2023-05-09T00:12:53.740Z,10.33
2023-05-09T00:13:53.606Z,10.32
2023-05-09T00:14:53.615Z,10.36
2023-05-09T00:15:53.707Z,10.32
2023-05-09T00:16:53.555Z,10.33
2023-05-09T00:17:53.566Z,10.34
2023-05-09T00:18:53.521Z,10.30
2023-05-09T00:19:53.517Z,10.32
2023-05-09T00:20:53.514Z,10.29
2023-05-09T00:21:53.505Z,10.27
2023-05-09T00:22:53.585Z,10.30
2023-05-09T00:23:53.473Z,10.29
2023-05-09T00:24:53.465Z,10.32
2023-05-09T00:25:53.479Z,10.30
2023-05-09T00:26:53.488Z,10.25
2023-05-09T00:27:53.434Z,10.29
2023-05-09T00:28:53.446Z,10.27
2023-05-09T00:29:53.476Z,10.27
2023-05-09T00:30:53.413Z,10.27
2023-05-09T00:31:53.474Z,10.25
2023-05-09T00:32:53.508Z,10.25
2023-05-09T00:33:53.364Z,10.29
2023-05-09T00:34:53.436Z,10.26
2023-05-09T00:35:53.414Z,10.29
2023-05-09T00:36:53.414Z,10.22
2023-05-09T00:37:53.370Z,10.23
2023-05-09T00:38:53.345Z,10.22
2023-05-09T00:39:53.349Z,10.23
2023-05-09T00:40:53.292Z,10.23
2023-05-09T00:41:53.323Z,10.20
2023-05-09T00:42:53.288Z,10.18
2023-05-09T00:43:53.354Z,10.22
2023-05-09T00:44:53.369Z,10.25
2023-05-09T00:45:53.303Z,10.23
2023-05-09T00:46:53.258Z,10.23
2023-05-09T00:47:53.287Z,10.22
2023-05-09T00:48:53.235Z,10.20
2023-05-09T00:49:53.210Z,10.20
2023-05-09T00:50:53.323Z,10.22
2023-05-09T00:51:53.192Z,10.22
2023-05-09T00:52:53.156Z,10.23
2023-05-09T00:53:53.171Z,10.18
2023-05-09T00:54:53.178Z,10.22
2023-05-09T00:55:53.140Z,10.20
2023-05-09T00:56:53.161Z,10.17
2023-05-09T00:57:53.172Z,10.17
2023-05-09T00:58:53.106Z,10.15
2023-05-09T00:59:53.109Z,10.18
2023-05-09T01:00:53.120Z,10.14
2023-05-09T01:01:53.137Z,10.14
2023-05-09T01:02:53.368Z,10.17
2023-05-09T01:03:53.112Z,10.15
2023-05-09T01:04:53.084Z,10.12
2023-05-09T01:05:53.077Z,10.14
2023-05-09T01:06:53.014Z,10.11
2023-05-09T01:07:53.040Z,10.12
2023-05-09T01:08:52.997Z,10.15
2023-05-09T01:09:52.996Z,10.11
2023-05-09T01:10:52.983Z,10.11
2023-05-09T01:11:53.002Z,10.11
2023-05-09T01:12:53.024Z,10.09
2023-05-09T01:13:52.965Z,10.11
2023-05-09T01:14:52.955Z,10.11
2023-05-09T01:15:53.002Z,10.12
2023-05-09T01:16:52.975Z,10.14
2023-05-09T01:17:52.961Z,10.14
2023-05-09T01:18:52.913Z,10.09
2023-05-09T01:19:52.904Z,10.14
2023-05-09T01:20:52.890Z,10.11
2023-05-09T01:21:52.917Z,10.11
2023-05-09T01:22:52.852Z,10.12
2023-05-09T01:23:52.857Z,10.12
2023-05-09T01:24:52.848Z,10.14
2023-05-09T01:25:52.846Z,10.11
2023-05-09T01:26:52.851Z,10.07
2023-05-09T01:27:52.848Z,10.11
2023-05-09T01:28:52.808Z,10.08
2023-05-09T01:29:52.798Z,10.14
2023-05-09T01:30:52.786Z,10.12
2023-05-09T01:31:52.773Z,10.12
2023-05-09T01:32:52.846Z,10.12
2023-05-09T01:33:52.750Z,10.09
2023-05-09T01:34:52.739Z,10.12
2023-05-09T01:35:52.729Z,10.12
2023-05-09T01:36:52.750Z,10.15
2023-05-09T01:37:52.731Z,10.14
2023-05-09T01:38:52.728Z,10.18
2023-05-09T01:39:52.673Z,10.18
2023-05-09T01:40:52.694Z,10.15
2023-05-09T01:41:52.697Z,10.17
2023-05-09T01:42:52.658Z,10.18
2023-05-09T01:43:52.713Z,10.17
2023-05-09T01:44:52.663Z,10.14
2023-05-09T01:45:52.629Z,10.17
2023-05-09T01:46:52.696Z,10.18
2023-05-09T01:47:52.663Z,10.23
2023-05-09T01:48:52.617Z,10.20
2023-05-09T01:49:52.592Z,10.18
2023-05-09T01:50:52.594Z,10.17
2023-05-09T01:51:52.570Z,10.18
2023-05-09T01:52:52.569Z,10.20
2023-05-09T01:53:52.573Z,10.18
2023-05-09T01:54:52.525Z,10.20
2023-05-09T01:55:52.525Z,10.23
2023-05-09T01:56:52.545Z,10.18
2023-05-09T01:57:52.493Z,10.20
2023-05-09T01:58:52.501Z,10.22
2023-05-09T01:59:52.492Z,10.20
2023-05-09T02:00:52.481Z,10.20
2023-05-09T02:01:52.517Z,10.25
2023-05-09T02:02:52.742Z,10.25
2023-05-09T02:03:52.461Z,10.25
2023-05-09T02:04:52.418Z,10.25
2023-05-09T02:05:52.440Z,10.20
2023-05-09T02:06:52.409Z,10.18
2023-05-09T02:07:52.379Z,10.20
2023-05-09T02:08:52.423Z,10.22
2023-05-09T02:09:52.387Z,10.22
2023-05-09T02:10:52.361Z,10.20
2023-05-09T02:11:52.346Z,10.17
2023-05-09T02:12:52.376Z,10.20
2023-05-09T02:13:52.352Z,10.20
2023-05-09T02:14:52.320Z,10.22
2023-05-09T02:15:52.358Z,10.23
2023-05-09T02:16:52.338Z,10.25
2023-05-09T02:17:52.366Z,10.23
2023-05-09T02:18:52.292Z,10.27
2023-05-09T02:19:52.286Z,10.26
2023-05-09T02:20:52.286Z,10.29
2023-05-09T02:21:52.289Z,10.29
2023-05-09T02:22:52.250Z,10.26
2023-05-09T02:23:52.243Z,10.25
2023-05-09T02:24:52.222Z,10.26
2023-05-09T02:25:52.199Z,10.23
2023-05-09T02:26:52.251Z,10.22
2023-05-09T02:27:52.168Z,10.26
2023-05-09T02:28:52.173Z,10.23
2023-05-09T02:29:52.110Z,10.25
2023-05-09T02:30:52.149Z,10.26
2023-05-09T02:31:52.203Z,10.23
2023-05-09T02:32:52.197Z,10.26
2023-05-09T02:33:52.136Z,10.27
2023-05-09T02:34:52.133Z,10.25
2023-05-09T02:35:52.078Z,10.29
2023-05-09T02:36:52.249Z,10.30
2023-05-09T02:37:52.037Z,10.30
2023-05-09T02:38:52.037Z,10.32
2023-05-09T02:39:52.041Z,10.32
2023-05-09T02:40:52.725Z,10.32
2023-05-09T02:41:52.079Z,10.30
2023-05-09T02:42:51.979Z,10.29
2023-05-09T02:43:51.965Z,10.26
2023-05-09T02:44:51.964Z,10.25
2023-05-09T02:45:51.959Z,10.26
2023-05-09T02:46:51.958Z,10.25
2023-05-09T02:47:51.965Z,10.23
2023-05-09T02:48:51.900Z,10.23
2023-05-09T02:49:51.918Z,10.22
2023-05-09T02:50:51.889Z,10.20
2023-05-09T02:51:51.942Z,10.25
2023-05-09T02:52:52.009Z,10.23
2023-05-09T02:53:51.852Z,10.20
2023-05-09T02:54:51.878Z,10.23
2023-05-09T02:55:51.829Z,10.22
2023-05-09T02:56:51.846Z,10.25
2023-05-09T02:57:56.328Z,10.22
2023-05-09T02:58:52.811Z,10.20
2023-05-09T02:59:51.846Z,10.20
2023-05-09T03:00:51.769Z,10.18
2023-05-09T03:01:51.858Z,10.20
2023-05-09T03:02:55.926Z,10.14
2023-05-09T03:03:51.825Z,10.17
2023-05-09T03:04:51.780Z,10.14
2023-05-09T03:05:51.768Z,10.17
2023-05-09T03:06:51.730Z,10.14
2023-05-09T03:07:51.722Z,10.17
2023-05-09T03:08:51.730Z,10.18
2023-05-09T03:09:51.702Z,10.22
2023-05-09T03:10:51.690Z,10.18
2023-05-09T03:11:51.677Z,10.22
2023-05-09T03:12:51.664Z,10.17
2023-05-09T03:13:51.694Z,10.18
2023-05-09T03:14:51.631Z,10.23
2023-05-09T03:15:51.691Z,10.17
2023-05-09T03:16:51.599Z,10.15
2023-05-09T03:17:51.646Z,10.14
2023-05-09T03:18:51.665Z,10.14
2023-05-09T03:19:51.609Z,10.15
2023-05-09T03:20:51.596Z,10.17
2023-05-09T03:21:51.585Z,10.12
2023-05-09T03:22:51.555Z,10.12
2023-05-09T03:23:51.545Z,10.12
2023-05-09T03:24:51.625Z,10.12
2023-05-09T03:25:51.520Z,10.11
2023-05-09T03:26:51.532Z,10.12
2023-05-09T03:27:51.548Z,10.11
2023-05-09T03:28:51.517Z,10.11
2023-05-09T03:29:51.520Z,10.12
2023-05-09T03:30:51.474Z,10.12
2023-05-09T03:31:51.474Z,10.08
2023-05-09T03:32:51.505Z,10.08
2023-05-09T03:33:51.503Z,10.08
2023-05-09T03:34:51.440Z,10.08
2023-05-09T03:35:51.441Z,10.11
2023-05-09T03:36:51.415Z,10.07
2023-05-09T03:37:51.405Z,10.05
2023-05-09T03:38:51.456Z,10.04
2023-05-09T03:39:51.390Z,9.99
2023-05-09T03:40:51.420Z,10.02
2023-05-09T03:41:51.381Z,10.02
2023-05-09T03:42:51.372Z,10.04
2023-05-09T03:43:51.369Z,10.01
2023-05-09T03:44:51.356Z,10.02
2023-05-09T03:45:51.391Z,9.96
2023-05-09T03:46:51.363Z,9.97
2023-05-09T03:47:51.330Z,9.96
2023-05-09T03:48:51.336Z,9.93
2023-05-09T03:49:51.285Z,9.97
2023-05-09T03:50:51.274Z,9.93
2023-05-09T03:51:51.245Z,9.90
2023-05-09T03:52:51.258Z,9.90
2023-05-09T03:53:51.278Z,9.90
2023-05-09T03:54:51.262Z,9.87
2023-05-09T03:55:51.260Z,9.87
2023-05-09T03:56:51.191Z,9.83
2023-05-09T03:57:51.227Z,9.87
2023-05-09T03:58:51.208Z,9.87
2023-05-09T03:59:51.239Z,9.93
2023-05-09T04:00:51.186Z,9.90
2023-05-09T04:01:51.211Z,9.89
2023-05-09T04:02:51.276Z,9.90
2023-05-09T04:03:51.253Z,9.89
2023-05-09T04:04:51.120Z,9.89
2023-05-09T04:05:51.131Z,9.86
2023-05-09T04:06:51.112Z,9.83
2023-05-09T04:07:51.103Z,9.84
2023-05-09T04:08:51.106Z,9.84
2023-05-09T04:09:51.118Z,9.87
2023-05-09T04:10:51.059Z,9.86
2023-05-09T04:11:51.074Z,9.90
2023-05-09T04:12:51.085Z,9.87
2023-05-09T04:13:51.046Z,9.90
2023-05-09T04:14:51.047Z,9.89
2023-05-09T04:15:51.059Z,9.94
2023-05-09T04:16:51.044Z,9.97
2023-05-09T04:17:51.066Z,9.94
2023-05-09T04:18:51.012Z,9.99
2023-05-09T04:19:51.003Z,10.05
2023-05-09T04:20:50.973Z,10.09
2023-05-09T04:21:50.973Z,10.09
2023-05-09T04:22:50.948Z,10.08
2023-05-09T04:23:52.339Z,10.08
2023-05-09T04:24:50.940Z,10.05
2023-05-09T04:25:50.918Z,10.09
2023-05-09T04:26:50.916Z,10.08
2023-05-09T04:27:50.909Z,10.04
2023-05-09T04:28:50.894Z,9.99
2023-05-09T04:29:50.869Z,9.93
2023-05-09T04:30:50.911Z,9.91
2023-05-09T04:31:50.991Z,9.94
2023-05-09T04:32:50.949Z,9.91
2023-05-09T04:33:50.857Z,9.87
2023-05-09T04:34:50.814Z,9.84
2023-05-09T04:35:50.885Z,9.86
2023-05-09T04:36:50.820Z,9.83
2023-05-09T04:37:50.797Z,9.81
2023-05-09T04:38:50.801Z,9.81
2023-05-09T04:39:50.784Z,9.79
2023-05-09T04:40:50.757Z,9.78
2023-05-09T04:41:50.822Z,9.81
2023-05-09T04:42:50.737Z,9.86
2023-05-09T04:43:50.738Z,9.87
2023-05-09T04:44:51.428Z,9.93
2023-05-09T04:45:50.753Z,9.97
2023-05-09T04:46:50.737Z,9.99
2023-05-09T04:47:50.732Z,10.04
2023-05-09T04:48:50.794Z,10.08
2023-05-09T04:49:50.669Z,10.18
2023-05-09T04:50:50.713Z,10.29
2023-05-09T04:51:50.634Z,10.51
2023-05-09T04:52:50.635Z,11.03
2023-05-09T04:53:50.614Z,11.85
2023-05-09T04:54:51.115Z,12.52
2023-05-09T04:55:50.910Z,13.07
2023-05-09T04:56:50.819Z,13.63
2023-05-09T04:57:50.698Z,14.47
2023-05-09T04:58:50.642Z,14.78
2023-05-09T04:59:50.582Z,15.06
2023-05-09T05:00:50.648Z,14.80
2023-05-09T05:01:50.575Z,14.70
2023-05-09T05:02:50.587Z,14.89
2023-05-09T05:03:50.513Z,14.99
2023-05-09T05:04:50.688Z,14.80
2023-05-09T05:05:50.620Z,14.68
2023-05-09T05:06:50.525Z,15.20
2023-05-09T05:07:50.503Z,15.54
2023-05-09T05:08:50.513Z,16.09
2023-05-09T05:09:50.468Z,16.25
2023-05-09T05:10:50.466Z,16.30
2023-05-09T05:12:00.000Z,16.12
2023-05-09T05:12:51.453Z,16.38
2023-05-09T05:13:50.436Z,16.94
2023-05-09T05:14:50.402Z,16.97
2023-05-09T05:15:50.444Z,16.94
2023-05-09T05:16:50.387Z,16.71
2023-05-09T05:17:50.446Z,16.52
2023-05-09T05:18:50.345Z,16.76
2023-05-09T05:19:50.361Z,17.23
2023-05-09T05:20:50.348Z,17.44
2023-05-09T05:21:50.336Z,17.41
2023-05-09T05:22:50.309Z,17.77
2023-05-09T05:23:50.330Z,17.97
2023-05-09T05:24:50.311Z,18.35
2023-05-09T05:25:50.285Z,18.65
2023-05-09T05:26:50.299Z,18.92
2023-05-09T05:27:50.275Z,19.16
2023-05-09T05:28:50.276Z,19.39
2023-05-09T05:29:50.288Z,19.11
2023-05-09T05:30:50.242Z,19.10
2023-05-09T05:31:50.251Z,19.50
2023-05-09T05:32:50.294Z,19.73
2023-05-09T05:33:50.218Z,19.78
2023-05-09T05:34:50.278Z,19.26
2023-05-09T05:35:50.268Z,19.13
2023-05-09T05:36:50.187Z,19.14
2023-05-09T05:37:50.154Z,19.22
2023-05-09T05:38:50.155Z,18.35
2023-05-09T05:39:50.184Z,18.23
2023-05-09T05:40:50.127Z,18.52
2023-05-09T05:41:50.129Z,19.11
2023-05-09T05:42:50.242Z,19.06
2023-05-09T05:43:51.538Z,17.77
2023-05-09T05:44:50.117Z,17.75
2023-05-09T05:45:50.213Z,17.79
2023-05-09T05:46:50.073Z,17.99
2023-05-09T05:47:50.073Z,18.50
2023-05-09T05:48:50.192Z,18.98
2023-05-09T05:49:50.351Z,19.55
2023-05-09T05:50:50.031Z,19.80
2023-05-09T05:51:50.005Z,20.05
2023-05-09T05:52:50.000Z,20.23
2023-05-09T05:53:50.148Z,20.52
2023-05-09T05:54:50.034Z,20.47
2023-05-09T05:55:50.447Z,20.72
2023-05-09T05:56:49.981Z,21.01
2023-05-09T05:57:49.978Z,20.89
2023-05-09T05:58:49.939Z,20.50
2023-05-09T05:59:49.962Z,19.88
2023-05-09T06:00:49.967Z,19.68
2023-05-09T06:01:50.042Z,19.99
2023-05-09T06:02:50.154Z,19.63
2023-05-09T06:03:49.931Z,19.68
2023-05-09T06:04:53.966Z,20.06
2023-05-09T06:05:49.865Z,20.23
2023-05-09T06:06:49.923Z,20.24
2023-05-09T06:07:49.849Z,20.31
2023-05-09T06:08:49.835Z,20.32
2023-05-09T06:09:49.859Z,20.16
2023-05-09T06:10:49.879Z,20.35
2023-05-09T06:11:49.815Z,19.33
2023-05-09T06:12:49.913Z,18.51
2023-05-09T06:13:49.846Z,18.03
2023-05-09T06:14:49.799Z,18.08
2023-05-09T06:15:49.765Z,17.70
2023-05-09T06:16:49.784Z,17.90
2023-05-09T06:17:49.798Z,17.43
2023-05-09T06:18:49.804Z,16.68
2023-05-09T06:19:49.811Z,16.38
2023-05-09T06:20:49.689Z,16.50
2023-05-09T06:21:50.469Z,16.86
2023-05-09T06:22:49.697Z,17.08
2023-05-09T06:24:05.930Z,16.78
2023-05-09T06:24:50.650Z,16.94
2023-05-09T06:25:49.659Z,17.46
2023-05-09T06:26:49.655Z,17.78
2023-05-09T06:27:49.627Z,17.97
2023-05-09T06:28:49.622Z,18.23
2023-05-09T06:29:49.627Z,18.73
2023-05-09T06:30:49.599Z,19.08
2023-05-09T06:31:49.614Z,18.37
2023-05-09T06:32:49.622Z,17.34
2023-05-09T06:33:49.577Z,17.79
2023-05-09T06:34:49.539Z,17.54
2023-05-09T06:35:49.564Z,17.74
2023-05-09T06:36:49.575Z,17.37
2023-05-09T06:37:49.600Z,17.66
2023-05-09T06:38:49.515Z,18.15
2023-05-09T06:39:49.502Z,18.60
2023-05-09T06:40:49.506Z,18.80
2023-05-09T06:41:49.507Z,18.02
2023-05-09T06:42:49.530Z,17.93
2023-05-09T06:43:50.002Z,16.94
2023-05-09T06:44:49.536Z,16.58
2023-05-09T06:45:49.491Z,15.97
2023-05-09T06:46:49.492Z,16.00
2023-05-09T06:47:49.487Z,16.01
2023-05-09T06:48:49.455Z,15.94
2023-05-09T06:49:49.408Z,16.49
2023-05-09T06:50:49.518Z,16.48
2023-05-09T06:51:49.464Z,16.04
2023-05-09T06:52:49.359Z,16.23
2023-05-09T06:53:49.377Z,16.53
2023-05-09T06:54:49.333Z,15.97
2023-05-09T06:55:49.332Z,16.56
2023-05-09T06:56:49.309Z,16.83
2023-05-09T06:57:49.313Z,17.46
2023-05-09T06:58:49.290Z,17.64
2023-05-09T06:59:49.294Z,17.48
2023-05-09T07:00:49.310Z,17.48
2023-05-09T07:01:49.291Z,17.43
2023-05-09T07:02:49.281Z,16.63
2023-05-09T07:03:49.264Z,15.28
2023-05-09T07:04:49.292Z,14.70
2023-05-09T07:05:49.246Z,14.55
2023-05-09T07:06:49.211Z,14.52
2023-05-09T07:07:49.341Z,14.46
2023-05-09T07:08:49.192Z,14.15
2023-05-09T07:09:50.821Z,14.06
2023-05-09T07:10:49.202Z,13.79
2023-05-09T07:11:49.150Z,13.64
2023-05-09T07:12:49.147Z,13.60
2023-05-09T07:13:49.143Z,13.64
2023-05-09T07:14:49.155Z,13.70
2023-05-09T07:15:49.115Z,13.70
2023-05-09T07:16:49.193Z,13.62
2023-05-09T07:17:49.146Z,13.42
2023-05-09T07:18:49.097Z,13.36
2023-05-09T07:19:49.091Z,13.51
2023-05-09T07:20:49.057Z,13.64
2023-05-09T07:21:49.072Z,13.77
2023-05-09T07:22:49.783Z,13.81
2023-05-09T07:23:49.091Z,13.70
2023-05-09T07:24:49.040Z,13.79
2023-05-09T07:25:49.011Z,13.84
2023-05-09T07:26:49.108Z,13.78
2023-05-09T07:27:48.990Z,13.77
2023-05-09T07:28:49.037Z,13.81
2023-05-09T07:29:48.977Z,13.81
2023-05-09T07:30:48.987Z,13.82
2023-05-09T07:31:49.085Z,13.92
2023-05-09T07:32:48.958Z,14.04
2023-05-09T07:33:48.982Z,14.17
2023-05-09T07:34:48.942Z,14.25
2023-05-09T07:35:49.551Z,14.40
2023-05-09T07:36:48.912Z,14.50
2023-05-09T07:37:48.910Z,14.58
2023-05-09T07:38:48.870Z,14.65
2023-05-09T07:39:48.918Z,14.61
2023-05-09T07:40:48.866Z,14.69
2023-05-09T07:41:49.001Z,14.69
2023-05-09T07:42:48.831Z,14.68
2023-05-09T07:43:48.844Z,14.62
2023-05-09T07:44:48.826Z,14.54
2023-05-09T07:45:48.891Z,14.29
2023-05-09T07:46:48.779Z,14.18
2023-05-09T07:47:48.854Z,14.10
2023-05-09T07:48:49.615Z,14.17
2023-05-09T07:49:48.823Z,14.22
2023-05-09T07:50:48.863Z,14.42
2023-05-09T07:51:48.789Z,14.50
2023-05-09T07:52:48.709Z,14.57
2023-05-09T07:53:48.706Z,14.60
2023-05-09T07:54:48.707Z,14.69
2023-05-09T07:55:48.687Z,14.83
2023-05-09T07:56:48.685Z,14.77
2023-05-09T07:57:48.718Z,14.72
2023-05-09T07:58:48.660Z,14.73
2023-05-09T07:59:48.694Z,14.77
2023-05-09T08:00:48.676Z,14.73
2023-05-09T08:01:48.644Z,14.72
2023-05-09T08:02:48.716Z,14.62
2023-05-09T08:03:48.743Z,14.55
2023-05-09T08:04:48.630Z,14.57
2023-05-09T08:05:48.671Z,14.57
2023-05-09T08:06:48.587Z,14.58
2023-05-09T08:07:48.572Z,14.62
2023-05-09T08:08:48.563Z,14.60
2023-05-09T08:09:48.560Z,14.69
2023-05-09T08:10:48.569Z,14.47
2023-05-09T08:11:48.575Z,14.47
2023-05-09T08:12:48.519Z,14.42
2023-05-09T08:13:48.517Z,14.50
2023-05-09T08:14:48.548Z,14.62
2023-05-09T08:15:48.520Z,14.70
2023-05-09T08:16:48.539Z,14.81
2023-05-09T08:17:48.525Z,14.73
2023-05-09T08:18:48.441Z,14.70
2023-05-09T08:19:48.448Z,14.70
2023-05-09T08:20:48.430Z,14.83
2023-05-09T08:21:48.405Z,14.89
2023-05-09T08:22:48.404Z,14.99
2023-05-09T08:23:48.481Z,15.06
2023-05-09T08:24:48.424Z,15.11
2023-05-09T08:25:48.395Z,15.19
2023-05-09T08:26:48.356Z,15.21
2023-05-09T08:27:48.427Z,15.28
2023-05-09T08:28:48.354Z,15.38
2023-05-09T08:29:48.343Z,15.56
2023-05-09T08:30:48.327Z,15.67
2023-05-09T08:31:48.532Z,15.74
2023-05-09T08:32:48.393Z,15.86
2023-05-09T08:33:48.330Z,15.92
2023-05-09T08:34:48.689Z,16.01
2023-05-09T08:35:48.466Z,16.02
2023-05-09T08:36:48.301Z,16.05
2023-05-09T08:37:49.868Z,16.08
2023-05-09T08:38:48.771Z,16.07
2023-05-09T08:39:48.516Z,16.08
2023-05-09T08:40:48.297Z,15.97
2023-05-09T08:41:48.371Z,16.09
2023-05-09T08:42:48.223Z,16.12
2023-05-09T08:43:48.189Z,16.23
2023-05-09T08:44:48.306Z,16.20
2023-05-09T08:45:48.232Z,16.11
2023-05-09T08:46:48.258Z,15.94
2023-05-09T08:47:48.220Z,15.83
2023-05-09T08:48:48.156Z,15.60
2023-05-09T08:49:48.133Z,15.74
2023-05-09T08:50:48.239Z,15.83
2023-05-09T08:51:48.192Z,15.94
2023-05-09T08:52:48.142Z,15.90
2023-05-09T08:53:48.140Z,15.84
2023-05-09T08:54:48.144Z,15.93
2023-05-09T08:55:48.114Z,16.00
2023-05-09T08:56:48.172Z,15.94
2023-05-09T08:57:48.243Z,15.68
2023-05-09T08:58:48.118Z,15.57
2023-05-09T08:59:48.084Z,15.75
2023-05-09T09:00:48.109Z,15.93
2023-05-09T09:01:48.277Z,16.07
2023-05-09T09:02:48.068Z,16.15
2023-05-09T09:03:48.118Z,16.23
2023-05-09T09:04:48.051Z,16.31
2023-05-09T09:05:48.026Z,16.42
2023-05-09T09:06:47.953Z,16.56
2023-05-09T09:07:47.926Z,16.67
2023-05-09T09:08:48.042Z,16.75
2023-05-09T09:09:47.947Z,16.76
2023-05-09T09:10:48.057Z,16.50
2023-05-09T09:11:47.938Z,16.39
2023-05-09T09:12:50.040Z,16.33
2023-05-09T09:13:47.878Z,16.15
2023-05-09T09:14:47.860Z,16.08
2023-05-09T09:15:47.871Z,15.97
2023-05-09T09:16:47.896Z,15.87
2023-05-09T09:17:47.857Z,15.92
2023-05-09T09:18:47.812Z,16.15
2023-05-09T09:19:47.813Z,16.21
2023-05-09T09:20:47.765Z,16.11
2023-05-09T09:21:47.801Z,16.20
2023-05-09T09:22:47.822Z,16.30
2023-05-09T09:23:47.824Z,16.38
2023-05-09T09:24:47.792Z,16.41
2023-05-09T09:25:47.743Z,16.49
2023-05-09T09:26:48.419Z,16.66
2023-05-09T09:27:47.765Z,16.53
2023-05-09T09:28:47.855Z,16.50
2023-05-09T09:29:48.667Z,16.45
2023-05-09T09:30:47.694Z,16.58
2023-05-09T09:31:47.784Z,16.64
2023-05-09T09:32:47.701Z,16.71
2023-05-09T09:33:47.677Z,16.70
2023-05-09T09:34:47.632Z,16.76
2023-05-09T09:35:47.700Z,16.71
2023-05-09T09:36:47.647Z,16.57
2023-05-09T09:37:47.680Z,16.46
2023-05-09T09:38:47.646Z,16.52
2023-05-09T09:39:47.593Z,16.48
2023-05-09T09:40:47.787Z,16.42
2023-05-09T09:41:47.668Z,16.39
2023-05-09T09:42:47.556Z,16.43
2023-05-09T09:43:47.595Z,16.60
2023-05-09T09:44:47.560Z,16.58
2023-05-09T09:45:47.582Z,16.76
2023-05-09T09:46:47.574Z,16.97
2023-05-09T09:47:47.518Z,16.98
2023-05-09T09:48:47.526Z,16.75
2023-05-09T09:49:47.489Z,16.82
2023-05-09T09:50:47.483Z,16.89
2023-05-09T09:51:47.456Z,16.85
2023-05-09T09:52:47.444Z,16.93
2023-05-09T09:53:47.465Z,17.06
2023-05-09T09:54:47.515Z,17.12
2023-05-09T09:55:47.412Z,17.07
2023-05-09T09:56:47.426Z,17.12
2023-05-09T09:57:47.402Z,17.12
2023-05-09T09:58:47.433Z,17.04
2023-05-09T09:59:47.392Z,17.06
2023-05-09T10:00:47.474Z,17.12
2023-05-09T10:01:48.198Z,17.14
2023-05-09T10:02:47.427Z,17.21
2023-05-09T10:03:47.379Z,17.36
2023-05-09T10:04:47.387Z,17.48
2023-05-09T10:05:51.129Z,17.59
2023-05-09T10:06:47.350Z,17.43
2023-05-09T10:07:47.913Z,17.06
2023-05-09T10:08:47.715Z,17.11
2023-05-09T10:09:47.356Z,17.31
2023-05-09T10:10:47.530Z,17.37
2023-05-09T10:11:47.282Z,17.33
2023-05-09T10:12:47.365Z,17.48
2023-05-09T10:13:47.253Z,17.41
2023-05-09T10:14:47.253Z,17.16
2023-05-09T10:15:53.597Z,16.91
2023-05-09T10:16:48.358Z,16.97
2023-05-09T10:17:47.310Z,17.16
2023-05-09T10:18:47.376Z,17.21
2023-05-09T10:19:47.135Z,17.28
2023-05-09T10:20:47.233Z,17.40
2023-05-09T10:21:47.314Z,17.59
2023-05-09T10:22:47.164Z,17.70
2023-05-09T10:23:47.177Z,17.82
2023-05-09T10:24:47.105Z,17.99
2023-05-09T10:25:47.196Z,18.15
2023-05-09T10:26:49.058Z,18.20
2023-05-09T10:27:47.099Z,18.14
2023-05-09T10:28:47.132Z,17.96
2023-05-09T10:29:47.077Z,17.66
2023-05-09T10:30:47.145Z,17.72
2023-05-09T10:31:47.200Z,17.89
2023-05-09T10:32:47.094Z,17.99
2023-05-09T10:33:47.077Z,17.97
2023-05-09T10:34:47.079Z,17.93
2023-05-09T10:35:46.999Z,17.96
2023-05-09T10:36:47.055Z,18.03
2023-05-09T10:37:47.053Z,18.20
2023-05-09T10:38:46.989Z,18.35
2023-05-09T10:39:46.925Z,18.17
2023-05-09T10:40:46.964Z,18.23
2023-05-09T10:41:46.947Z,18.15
2023-05-09T10:42:46.932Z,18.08
2023-05-09T10:43:47.036Z,18.07
2023-05-09T10:44:46.913Z,18.20
2023-05-09T10:45:46.903Z,18.36
2023-05-09T10:46:46.924Z,18.51
2023-05-09T10:47:47.017Z,18.69
2023-05-09T10:48:46.866Z,18.82
2023-05-09T10:49:46.889Z,18.66
2023-05-09T10:50:46.835Z,18.69
2023-05-09T10:51:46.864Z,18.80
2023-05-09T10:52:46.787Z,18.78
2023-05-09T10:53:46.822Z,18.76
2023-05-09T10:54:48.654Z,18.82
2023-05-09T10:55:46.771Z,18.90
2023-05-09T10:56:46.799Z,18.81
2023-05-09T10:57:46.746Z,18.70
2023-05-09T10:58:46.748Z,18.80
2023-05-09T10:59:46.737Z,18.92
2023-05-09T11:00:46.716Z,18.94
2023-05-09T11:01:46.774Z,18.94
2023-05-09T11:02:46.761Z,18.80
2023-05-09T11:03:46.781Z,18.66
2023-05-09T11:04:47.976Z,18.73
2023-05-09T11:05:46.833Z,18.82
2023-05-09T11:06:46.733Z,18.94
2023-05-09T11:07:46.628Z,19.07
2023-05-09T11:08:46.656Z,19.19
2023-05-09T11:09:46.700Z,19.36
2023-05-09T11:10:46.745Z,19.41
2023-05-09T11:11:46.636Z,19.36
2023-05-09T11:12:46.739Z,19.28
2023-05-09T11:13:46.622Z,19.47
2023-05-09T11:14:48.384Z,19.50
2023-05-09T11:15:46.613Z,19.59
2023-05-09T11:16:46.669Z,19.54
2023-05-09T11:17:46.602Z,19.47
2023-05-09T11:18:46.562Z,19.11
2023-05-09T11:19:46.597Z,19.00
2023-05-09T11:20:46.507Z,18.84
2023-05-09T11:21:46.546Z,18.81
2023-05-09T11:22:46.553Z,18.60
2023-05-09T11:23:46.529Z,18.58
2023-05-09T11:24:46.675Z,18.62
2023-05-09T11:25:46.524Z,18.63
2023-05-09T11:26:46.474Z,18.65
2023-05-09T11:27:46.453Z,18.72
2023-05-09T11:28:46.459Z,18.80
2023-05-09T11:29:46.453Z,18.87
2023-05-09T11:30:46.419Z,18.94
2023-05-09T11:31:46.464Z,19.00
2023-05-09T11:32:46.477Z,19.18
2023-05-09T11:33:46.551Z,19.43
2023-05-09T11:34:46.412Z,19.54
2023-05-09T11:35:46.421Z,19.55
2023-05-09T11:36:46.431Z,19.56
2023-05-09T11:37:46.349Z,19.65
2023-05-09T11:38:46.336Z,19.66
2023-05-09T11:39:46.401Z,19.69
2023-05-09T11:40:46.348Z,19.80
2023-05-09T11:41:46.315Z,19.61
2023-05-09T11:42:46.347Z,19.55
2023-05-09T11:43:46.342Z,19.59
2023-05-09T11:44:46.400Z,19.69
2023-05-09T11:45:46.283Z,19.76
2023-05-09T11:46:46.254Z,19.81
2023-05-09T11:47:46.287Z,19.91
2023-05-09T11:48:46.282Z,20.02
2023-05-09T11:49:46.239Z,20.08
2023-05-09T11:50:46.322Z,19.91
2023-05-09T11:51:46.185Z,19.46
2023-05-09T11:52:46.191Z,19.21
2023-05-09T11:53:46.176Z,19.14
2023-05-09T11:54:46.206Z,19.33
2023-05-09T11:55:46.134Z,19.43
2023-05-09T11:56:46.156Z,19.55
2023-05-09T11:57:46.871Z,19.68
2023-05-09T11:58:46.122Z,19.71
2023-05-09T11:59:46.147Z,19.76
2023-05-09T12:00:46.147Z,19.91
2023-05-09T12:01:46.076Z,19.92
2023-05-09T12:02:46.223Z,19.98
2023-05-09T12:03:46.247Z,19.98
2023-05-09T12:04:46.072Z,19.98
2023-05-09T12:05:46.031Z,20.14
2023-05-09T12:06:46.046Z,20.20
2023-05-09T12:07:46.039Z,20.05
2023-05-09T12:08:46.030Z,19.58
2023-05-09T12:09:46.291Z,19.32
2023-05-09T12:10:46.003Z,19.23
2023-05-09T12:11:46.501Z,19.10
2023-05-09T12:12:46.005Z,19.16
2023-05-09T12:13:45.945Z,19.31
2023-05-09T12:14:45.955Z,19.33
2023-05-09T12:15:46.676Z,19.21
2023-05-09T12:16:45.963Z,19.23
2023-05-09T12:17:46.766Z,19.28
2023-05-09T12:18:45.939Z,19.39
2023-05-09T12:19:45.879Z,19.59
2023-05-09T12:20:45.981Z,19.78
2023-05-09T12:21:45.902Z,19.98
2023-05-09T12:22:45.877Z,20.20
2023-05-09T12:23:46.730Z,20.20
2023-05-09T12:24:45.899Z,19.92
2023-05-09T12:25:45.875Z,19.55
2023-05-09T12:26:45.835Z,19.47
2023-05-09T12:27:45.802Z,19.56
2023-05-09T12:28:45.889Z,19.66
2023-05-09T12:29:45.775Z,19.76
2023-05-09T12:30:45.775Z,19.76
2023-05-09T12:31:45.868Z,19.59
2023-05-09T12:32:45.818Z,19.26
2023-05-09T12:33:45.759Z,19.16
2023-05-09T12:34:45.739Z,19.06
2023-05-09T12:35:45.773Z,19.08
2023-05-09T12:36:45.760Z,19.08
2023-05-09T12:37:45.721Z,19.07
2023-05-09T12:38:45.936Z,19.11
2023-05-09T12:39:45.687Z,19.19
2023-05-09T12:40:45.714Z,19.31
2023-05-09T12:41:57.350Z,19.26
2023-05-09T12:42:46.935Z,19.21
2023-05-09T12:43:45.663Z,19.28
2023-05-09T12:44:45.684Z,19.22
2023-05-09T12:45:45.604Z,19.36
2023-05-09T12:46:45.631Z,19.46
2023-05-09T12:47:45.745Z,19.47
2023-05-09T12:48:45.668Z,19.63
2023-05-09T12:49:45.599Z,19.78
2023-05-09T12:50:45.555Z,19.76
2023-05-09T12:51:45.563Z,19.84
2023-05-09T12:53:02.138Z,19.86
2023-05-09T12:53:46.592Z,19.73
2023-05-09T12:54:45.574Z,19.68